Time;durP1;ratioP1;P1;durP2;ratioP2;P2;SDS_P1;SDS_P2;PMS_P1;PMS_P2;Temp;Humidity;BMP_temperature;BMP_pressure;BME280_temperature;BME280_humidity;BME280_pressure;Samples;Min_cycle;Max_cycle;Signal;HPM_P1;HPM_P2
2022/02/06 00:01:52;;;;;;;;;9.00;7.75;;;;;10.00;58.30;102176.00;5041367;28;45516;-95
2022/02/06 00:04:18;;;;;;;;;9.25;8.25;;;;;9.99;58.63;102168.97;5024385;28;47034;-87
2022/02/06 00:06:43;;;;;;;;;7.00;4.00;;;;;10.00;58.58;102165.47;5040631;28;45394;-87
2022/02/06 00:09:08;;;;;;;;;11.00;8.75;;;;;10.00;58.52;102165.47;5040666;28;45340;-89
2022/02/06 00:11:34;;;;;;;;;12.50;7.25;;;;;10.01;58.24;102157.56;5031285;28;45285;-85
2022/02/06 00:13:59;;;;;;;;;8.00;7.00;;;;;10.01;58.75;102151.44;5041286;28;45462;-87
2022/02/06 00:16:24;;;;;;;;;9.50;8.75;;;;;9.98;58.40;102156.72;5040855;28;46681;-87
2022/02/06 00:18:50;;;;;;;;;14.50;10.00;;;;;9.97;58.50;102133.97;5035812;28;45417;-87
2022/02/06 00:21:18;;;;;;;;;8.75;4.75;;;;;9.96;58.74;102133.09;5034355;28;45335;-87
2022/02/06 00:23:46;;;;;;;;;8.75;8.00;;;;;9.97;58.38;102115.59;5041387;28;45447;-88
2022/02/06 00:26:27;;;;;;;;;13.25;10.00;;;;;9.95;58.92;102115.56;5040732;28;46317;-88
2022/02/06 00:29:14;;;;;;;;;13.00;11.25;;;;;9.96;58.93;102100.69;5040811;28;45349;-88
2022/02/06 00:39:15;;;;;;;;;4.75;3.75;;;;;10.00;59.02;102113.78;5040814;28;45142;-88
2022/02/06 00:41:40;;;;;;;;;17.00;12.75;;;;;9.99;58.78;102116.44;5041135;28;45320;-87
2022/02/06 00:44:07;;;;;;;;;5.00;5.00;;;;;9.99;58.82;102113.81;5023036;28;46505;-88
2022/02/06 00:46:36;;;;;;;;;3.00;3.00;;;;;10.00;58.93;102098.03;5041080;28;45369;-88
2022/02/06 00:49:21;;;;;;;;;7.00;6.00;;;;;10.03;59.12;102081.38;5021757;28;45751;-89
2022/02/06 00:52:04;;;;;;;;;4.00;3.00;;;;;10.03;59.06;102076.13;5038912;28;45448;-89
2022/02/06 00:54:29;;;;;;;;;5.75;4.25;;;;;10.02;59.07;102066.50;5040076;28;45335;-89
2022/02/06 00:56:55;;;;;;;;;5.00;5.00;;;;;10.01;58.76;102062.13;5041331;28;45320;-92
2022/02/06 00:59:20;;;;;;;;;8.50;5.75;;;;;10.01;59.41;102062.13;5022964;28;45236;-91
2022/02/06 01:01:46;;;;;;;;;9.75;5.00;;;;;10.00;59.10;102055.16;5023140;28;45321;-93
2022/02/06 01:04:13;;;;;;;;;5.50;4.25;;;;;10.00;59.07;102070.91;5040431;28;45272;-86
2022/02/06 01:06:39;;;;;;;;;6.25;4.25;;;;;9.98;59.23;102081.41;5040096;28;46555;-85
2022/02/06 01:09:05;;;;;;;;;7.50;5.00;;;;;9.97;59.18;102081.44;5040502;28;45847;-88
2022/02/06 01:11:33;;;;;;;;;22.00;21.25;;;;;9.96;59.09;102070.06;5051690;28;45386;-89
2022/02/06 01:16:32;;;;;;;;;3.00;3.00;;;;;10.00;59.51;102076.16;5040222;28;45927;-87
2022/02/06 01:19:03;;;;;;;;;7.00;5.25;;;;;10.00;59.02;102076.16;5040952;28;45314;-94
2022/02/06 01:24:06;;;;;;;;;8.75;7.25;;;;;9.96;59.54;102075.31;5042122;28;45422;-96
2022/02/06 01:29:12;;;;;;;;;9.25;5.00;;;;;9.97;59.56;102082.31;5040352;28;45233;-86
2022/02/06 01:34:04;;;;;;;;;6.25;6.25;;;;;9.97;59.71;102076.19;5039911;28;45950;-87
2022/02/06 01:36:42;;;;;;;;;7.75;6.00;;;;;9.97;59.43;102063.06;5039871;28;45483;-87
2022/02/06 01:41:41;;;;;;;;;9.50;5.00;;;;;9.98;59.82;102072.66;5040290;28;45252;-89
2022/02/06 01:44:14;;;;;;;;;15.50;8.50;;;;;9.96;59.79;102066.56;5039544;28;45486;-89
2022/02/06 02:00:40;;;;;;;;;5.00;5.00;;;;;9.94;60.07;102063.06;5039783;28;45550;-84
2022/02/06 02:47:52;;;;;;;;;6.50;4.00;;;;;9.94;59.82;101981.66;5039041;28;45326;-88
2022/02/06 02:50:22;;;;;;;;;4.00;2.50;;;;;9.93;59.67;101974.66;5020873;28;47186;-87
2022/02/06 02:53:07;;;;;;;;;3.25;2.00;;;;;9.95;59.70;101976.38;5038667;28;45486;-89
2022/02/06 03:05:49;;;;;;;;;7.75;6.25;;;;;10.04;60.21;101954.41;5038160;28;45301;-84
2022/02/06 03:08:14;;;;;;;;;5.00;2.00;;;;;10.04;59.95;101956.16;5038588;28;45440;-82
2022/02/06 03:10:40;;;;;;;;;4.75;3.50;;;;;10.07;60.00;101937.75;5024860;28;46254;-81
2022/02/06 03:13:09;;;;;;;;;7.00;4.75;;;;;10.07;60.06;101936.00;5043313;28;45457;-81
2022/02/06 03:18:03;;;;;;;;;9.25;4.75;;;;;10.09;60.26;101918.44;5042174;28;45437;-82
2022/02/06 03:20:30;;;;;;;;;4.50;3.00;;;;;10.06;60.44;101926.38;5041591;28;45313;-88
2022/02/06 03:23:00;;;;;;;;;5.75;5.75;;;;;10.07;60.73;101909.72;5042299;28;45478;-85
2022/02/06 03:25:26;;;;;;;;;11.25;6.75;;;;;10.09;60.78;101880.78;5042596;28;45222;-86
2022/02/06 03:27:52;;;;;;;;;4.00;4.00;;;;;10.11;60.41;101877.25;5041547;28;45334;-87
2022/02/06 03:30:19;;;;;;;;;9.25;4.00;;;;;10.15;60.86;101890.38;5041758;28;45370;-87
2022/02/06 03:32:45;;;;;;;;;4.50;3.50;;;;;10.13;60.76;101896.50;5042002;28;45165;-86
2022/02/06 03:35:11;;;;;;;;;4.50;3.25;;;;;10.15;61.04;101893.00;5036646;28;45333;-87
2022/02/06 03:37:36;;;;;;;;;2.25;2.25;;;;;10.18;60.92;101893.81;5039606;28;45563;-86
2022/02/06 03:40:05;;;;;;;;;10.00;6.00;;;;;10.21;60.79;101892.91;5029919;28;47089;-86
2022/02/06 03:42:43;;;;;;;;;5.75;4.25;;;;;10.21;60.97;101898.16;5027915;28;45582;-86
2022/02/06 03:45:11;;;;;;;;;4.00;3.00;;;;;10.23;60.85;101896.38;5042082;28;45220;-82
2022/02/06 03:47:51;;;;;;;;;11.25;7.75;;;;;10.21;60.98;101896.41;5041857;28;45413;-84
2022/02/06 03:50:18;;;;;;;;;5.25;4.00;;;;;10.24;61.11;101896.38;5041088;28;46172;-84
2022/02/06 03:52:47;;;;;;;;;6.00;6.00;;;;;10.27;60.91;101895.47;5041640;28;45243;-84
2022/02/06 03:55:19;;;;;;;;;8.00;4.00;;;;;10.27;61.33;101891.97;5042078;28;45406;-83
2022/02/06 03:57:45;;;;;;;;;6.50;4.00;;;;;10.22;61.33;101886.78;5041665;28;46158;-82
2022/02/06 04:00:11;;;;;;;;;9.25;6.00;;;;;10.23;61.22;101878.88;5041290;28;45371;-83
2022/02/06 04:02:37;;;;;;;;;3.00;3.00;;;;;10.28;61.07;101889.31;5023773;28;45457;-82
2022/02/06 04:05:02;;;;;;;;;5.00;4.75;;;;;10.29;61.16;101880.53;5040549;28;45382;-82
2022/02/06 04:07:28;;;;;;;;;7.25;6.00;;;;;10.28;61.32;101870.91;5041237;28;45362;-82
2022/02/06 04:09:55;;;;;;;;;5.00;4.00;;;;;10.29;61.12;101880.53;5041490;28;45772;-82
2022/02/06 04:12:23;;;;;;;;;6.25;4.00;;;;;10.30;61.10;101887.53;5051973;28;45418;-82
2022/02/06 04:14:57;;;;;;;;;7.50;5.50;;;;;10.27;61.15;101863.06;5041329;28;45167;-81
2022/02/06 04:17:28;;;;;;;;;14.25;8.75;;;;;10.27;61.25;101878.84;5041379;28;45460;-82
2022/02/06 04:19:54;;;;;;;;;6.00;5.25;;;;;10.30;61.38;101881.41;5040990;28;45545;-81
2022/02/06 04:22:20;;;;;;;;;2.50;2.00;;;;;10.26;61.21;101872.69;5041139;28;45432;-82
2022/02/06 04:24:46;;;;;;;;;6.00;4.00;;;;;10.23;61.48;101870.97;5041225;28;45639;-82
2022/02/06 04:27:11;;;;;;;;;3.25;3.00;;;;;10.22;61.38;101863.13;5041166;28;45317;-82
2022/02/06 04:29:37;;;;;;;;;6.50;4.00;;;;;10.20;61.44;101860.50;5041249;28;45341;-82
2022/02/06 04:32:04;;;;;;;;;5.00;4.00;;;;;10.24;61.10;101864.84;5041000;28;45426;-85
2022/02/06 04:34:30;;;;;;;;;3.50;2.75;;;;;10.27;61.10;101847.28;5039086;28;45442;-84
2022/02/06 05:17:24;;;;;;;;;4.00;4.00;;;;;10.17;61.85;101775.63;5009314;28;45480;-85
2022/02/06 05:28:01;;;;;;;;;3.50;3.50;;;;;10.24;61.92;101766.75;5040326;28;45170;-85
2022/02/06 05:30:04;;;;;;;;;5.75;3.75;;;;;10.25;61.96;101760.59;5025907;28;45873;-87
2022/02/06 05:34:58;;;;;;;;;3.00;3.00;;;;;10.21;61.73;101743.13;5038797;28;45347;-84
2022/02/06 05:37:26;;;;;;;;;8.25;6.75;;;;;10.21;62.02;101730.88;5040345;28;45517;-83
2022/02/06 05:39:55;;;;;;;;;5.25;4.50;;;;;10.27;61.68;101726.41;5038143;28;45597;-82
2022/02/06 05:42:20;;;;;;;;;7.00;4.00;;;;;10.25;61.86;101729.06;5039885;28;45617;-82
2022/02/06 05:44:54;;;;;;;;;5.00;5.00;;;;;10.26;61.93;101724.69;5039931;28;45448;-81
2022/02/06 05:47:21;;;;;;;;;6.75;4.50;;;;;10.27;62.08;101727.28;5028725;28;45275;-82
2022/02/06 05:49:47;;;;;;;;;4.00;4.00;;;;;10.31;62.00;101717.59;5039827;28;45487;-83
2022/02/06 05:52:12;;;;;;;;;4.25;3.00;;;;;10.31;62.04;101712.34;5039506;28;45401;-82
2022/02/06 05:54:38;;;;;;;;;8.50;7.25;;;;;10.32;61.95;101714.09;5040113;28;45305;-82
2022/02/06 05:57:05;;;;;;;;;4.00;3.00;;;;;10.30;62.04;101714.09;5039768;28;45383;-81
2022/02/06 05:59:31;;;;;;;;;5.75;3.50;;;;;10.27;62.27;101698.41;5039951;28;45494;-87
2022/02/06 06:01:56;;;;;;;;;4.25;3.75;;;;;10.25;62.10;101713.28;5038115;28;46989;-84
2022/02/06 06:04:22;;;;;;;;;9.00;5.75;;;;;10.24;62.23;101712.44;5039958;28;45281;-85
2022/02/06 06:06:47;;;;;;;;;5.75;3.50;;;;;10.23;62.10;101709.81;5039092;28;45216;-85
2022/02/06 06:09:13;;;;;;;;;3.50;3.50;;;;;10.21;62.31;101704.59;5039477;28;45249;-85
2022/02/06 06:11:38;;;;;;;;;5.00;4.00;;;;;10.23;62.31;101707.19;5044584;28;46246;-85
2022/02/06 06:14:03;;;;;;;;;2.50;2.25;;;;;10.23;62.64;101699.31;5039182;28;45212;-86
2022/02/06 06:16:31;;;;;;;;;3.75;3.00;;;;;10.23;62.60;101707.19;5039854;28;45225;-87
2022/02/06 06:18:57;;;;;;;;;4.00;4.00;;;;;10.24;62.39;101699.31;5039698;28;45394;-87
2022/02/06 06:21:25;;;;;;;;;7.50;5.00;;;;;10.23;62.32;101694.06;5038907;28;45497;-87
2022/02/06 06:23:53;;;;;;;;;5.25;4.25;;;;;10.22;62.75;101700.22;5039475;28;45320;-86
2022/02/06 06:26:20;;;;;;;;;7.25;6.25;;;;;10.23;62.43;101700.19;5039682;28;45261;-86
2022/02/06 06:28:45;;;;;;;;;3.25;3.00;;;;;10.26;62.81;101688.75;5021566;28;46879;-84
2022/02/06 06:31:11;;;;;;;;;7.00;4.00;;;;;10.29;62.58;101680.84;5039497;28;45391;-83
2022/02/06 06:33:36;;;;;;;;;7.00;5.00;;;;;10.32;62.46;101693.91;5037815;28;45460;-85
2022/02/06 06:36:02;;;;;;;;;5.75;4.00;;;;;10.34;62.79;101675.50;5039033;28;45598;-85
2022/02/06 06:38:27;;;;;;;;;3.75;2.00;;;;;10.29;62.65;101670.31;5035908;28;45461;-86
2022/02/06 06:40:53;;;;;;;;;6.50;5.25;;;;;10.30;62.82;101676.44;5021130;28;47481;-88
2022/02/06 06:43:19;;;;;;;;;4.00;3.00;;;;;10.29;62.58;101691.34;5039082;28;45757;-89
2022/02/06 06:45:45;;;;;;;;;6.25;4.00;;;;;10.30;62.56;101697.44;5020873;28;45363;-85
2022/02/06 06:48:10;;;;;;;;;4.00;3.00;;;;;10.28;62.70;101693.97;5039196;28;45315;-88
2022/02/06 06:50:35;;;;;;;;;3.00;3.00;;;;;10.29;62.76;101698.34;5039019;28;45193;-90
2022/02/06 06:53:04;;;;;;;;;6.50;4.25;;;;;10.29;62.72;101691.34;5024733;28;45356;-89
2022/02/06 06:55:32;;;;;;;;;3.00;3.00;;;;;10.31;62.51;101676.41;5042707;28;45208;-89
2022/02/06 06:58:13;;;;;;;;;4.75;2.50;;;;;10.33;62.72;101674.63;5042747;28;45454;-88
2022/02/06 07:03:12;;;;;;;;;5.50;3.00;;;;;10.39;63.01;101667.53;5030191;28;45274;-88
2022/02/06 07:05:38;;;;;;;;;4.75;4.00;;;;;10.38;62.75;101665.78;5040075;28;45469;-88
2022/02/06 07:08:03;;;;;;;;;3.00;3.00;;;;;10.39;62.76;101660.53;5024161;28;46398;-87
2022/02/06 07:10:29;;;;;;;;;5.00;4.25;;;;;10.39;62.89;101649.13;5044891;28;46533;-89
2022/02/06 07:12:54;;;;;;;;;5.75;5.00;;;;;10.41;62.57;101661.38;5024817;28;45475;-88
2022/02/06 07:15:20;;;;;;;;;2.50;2.00;;;;;10.44;62.72;101655.19;5042686;28;45301;-86
2022/02/06 07:17:45;;;;;;;;;3.00;3.00;;;;;10.49;62.90;101649.84;5042348;28;45426;-91
2022/02/06 07:20:11;;;;;;;;;2.00;2.00;;;;;10.45;62.79;101634.13;5042433;28;46407;-91
2022/02/06 07:22:37;;;;;;;;;4.00;4.00;;;;;10.46;62.79;101640.25;5042268;28;45365;-85
2022/02/06 07:25:05;;;;;;;;;4.50;4.50;;;;;10.50;62.72;101634.03;5042073;28;45561;-87
2022/02/06 07:27:34;;;;;;;;;3.50;2.25;;;;;10.52;62.69;101641.94;5024137;28;46225;-90
2022/02/06 07:30:04;;;;;;;;;3.50;2.25;;;;;10.53;62.65;101644.53;5039150;28;45435;-90
2022/02/06 07:32:33;;;;;;;;;6.25;5.25;;;;;10.56;62.93;101635.72;5031450;28;45835;-91
2022/02/06 07:34:58;;;;;;;;;2.00;2.00;;;;;10.58;63.03;101634.81;5022898;28;45314;-86
2022/02/06 07:37:24;;;;;;;;;4.00;2.50;;;;;10.58;62.97;101621.66;5041583;28;45217;-85
2022/02/06 07:39:49;;;;;;;;;6.50;2.75;;;;;10.63;62.84;101625.94;5042125;28;46215;-86
2022/02/06 07:42:15;;;;;;;;;3.50;3.00;;;;;10.65;62.63;101626.78;5023921;28;45420;-88
2022/02/06 07:44:42;;;;;;;;;3.00;3.00;;;;;10.64;62.61;101636.44;5041839;28;45217;-86
2022/02/06 07:47:43;;;;;;;;;5.75;4.00;;;;;10.65;62.56;101619.78;5041698;28;45477;-91
2022/02/06 07:50:03;;;;;;;;;3.50;1.50;;;;;10.66;62.72;101596.97;5039103;28;46103;-87
2022/02/06 07:52:30;;;;;;;;;4.00;2.00;;;;;10.68;62.78;101600.44;5041870;28;45781;-87
2022/02/06 07:54:56;;;;;;;;;4.50;3.00;;;;;10.71;62.79;101581.13;5041376;28;45415;-88
2022/02/06 07:57:22;;;;;;;;;4.00;2.75;;;;;10.70;62.60;101585.50;5041524;28;45263;-90
2022/02/06 07:59:48;;;;;;;;;3.50;3.00;;;;;10.70;62.67;101601.28;5041202;28;46207;-86
2022/02/06 08:02:15;;;;;;;;;1.75;1.50;;;;;10.66;62.68;101586.47;5041261;28;45292;-84
2022/02/06 08:04:40;;;;;;;;;3.50;3.00;;;;;10.68;62.63;101579.41;5041460;28;45501;-85
2022/02/06 08:07:06;;;;;;;;;4.25;4.25;;;;;10.70;62.66;101572.34;5023130;28;46503;-91
2022/02/06 08:12:09;;;;;;;;;5.00;5.00;;;;;10.73;62.49;101553.03;5036921;28;45695;-84
2022/02/06 08:17:20;;;;;;;;;5.00;2.00;;;;;10.79;62.57;101531.88;5041491;28;45315;-84
2022/02/06 08:19:46;;;;;;;;;1.75;1.75;;;;;10.83;62.71;101556.31;5040975;28;46790;-82
2022/02/06 08:22:12;;;;;;;;;2.75;0.25;;;;;10.84;62.69;101547.56;5041111;28;45644;-84
2022/02/06 08:24:37;;;;;;;;;3.00;2.50;;;;;10.83;62.94;101545.81;5040771;28;45256;-84
2022/02/06 08:27:03;;;;;;;;;5.25;2.00;;;;;10.86;63.04;101535.22;5041226;28;45255;-88
2022/02/06 08:29:29;;;;;;;;;2.25;2.25;;;;;10.87;62.98;101535.19;5041060;28;45467;-87
2022/02/06 08:31:54;;;;;;;;;6.50;4.50;;;;;10.90;63.05;101537.75;5041217;28;45321;-87
2022/02/06 08:34:19;;;;;;;;;2.50;2.00;;;;;10.93;63.36;101534.19;5040875;28;45204;-88
2022/02/06 08:36:45;;;;;;;;;1.00;1.00;;;;;10.93;63.41;101526.31;5038472;28;45376;-88
2022/02/06 08:39:10;;;;;;;;;3.25;3.00;;;;;10.95;63.48;101529.75;5044216;28;46403;-87
2022/02/06 08:41:36;;;;;;;;;2.00;1.75;;;;;10.90;63.92;101524.59;5019012;28;45462;-86
2022/02/06 08:44:02;;;;;;;;;5.00;2.50;;;;;10.96;63.86;101517.50;5028986;28;46024;-88
2022/02/06 08:46:28;;;;;;;;;2.25;2.00;;;;;10.95;64.19;101511.34;5015653;28;46510;-87
2022/02/06 08:48:53;;;;;;;;;2.75;1.25;;;;;10.97;64.17;101501.66;5038275;28;45632;-88
2022/02/06 08:51:19;;;;;;;;;2.25;1.75;;;;;10.99;64.23;101498.97;5030837;28;45490;-88
2022/02/06 08:53:44;;;;;;;;;2.00;2.00;;;;;11.03;64.55;101503.28;5035538;28;45422;-88
2022/02/06 08:56:10;;;;;;;;;3.25;2.25;;;;;11.06;64.56;101502.38;5028304;28;45497;-88
2022/02/06 08:58:35;;;;;;;;;2.00;2.00;;;;;11.06;64.61;101495.34;5009732;28;47023;-88
2022/02/06 09:01:02;;;;;;;;;2.00;2.00;;;;;11.05;64.85;101498.00;5036227;28;45320;-89
2022/02/06 09:03:27;;;;;;;;;2.50;2.50;;;;;11.03;64.75;101490.16;5012848;28;45384;-88
2022/02/06 09:05:52;;;;;;;;;2.75;2.00;;;;;11.02;65.38;101484.00;5020885;28;47185;-89
2022/02/06 09:08:18;;;;;;;;;3.25;2.00;;;;;11.04;65.38;101468.19;5026847;28;45355;-89
2022/02/06 09:10:43;;;;;;;;;2.50;2.25;;;;;11.05;65.64;101471.69;5038952;28;45189;-88
2022/02/06 09:13:08;;;;;;;;;2.25;2.00;;;;;11.06;65.67;101481.31;5028611;28;45888;-88
2022/02/06 09:15:34;;;;;;;;;1.50;1.50;;;;;11.02;65.98;101465.59;5034213;28;45206;-88
2022/02/06 09:17:59;;;;;;;;;2.00;2.00;;;;;11.02;65.95;101460.34;5029551;28;47884;-89
2022/02/06 09:20:25;;;;;;;;;3.50;2.25;;;;;11.00;65.76;101459.50;5034984;28;45806;-89
2022/02/06 09:22:50;;;;;;;;;2.00;2.00;;;;;11.02;65.80;101448.94;5039209;28;46049;-90
2022/02/06 09:25:17;;;;;;;;;3.00;2.00;;;;;11.05;65.73;101458.53;5029989;28;45564;-89
2022/02/06 09:27:43;;;;;;;;;3.75;3.00;;;;;11.08;65.85;101461.09;5042859;28;46350;-89
2022/02/06 09:30:15;;;;;;;;;2.00;2.00;;;;;11.07;66.14;101454.97;5041560;28;45696;-90
2022/02/06 09:37:32;;;;;;;;;1.50;1.50;;;;;11.09;66.43;101452.28;5040676;28;45998;-94
2022/02/06 09:39:59;;;;;;;;;6.25;4.75;;;;;11.11;66.38;101445.25;5025135;28;45594;-91
2022/02/06 09:42:27;;;;;;;;;2.00;2.00;;;;;11.08;66.48;101445.31;5034133;28;45459;-91
2022/02/06 09:44:53;;;;;;;;;3.00;2.75;;;;;11.04;67.10;101433.97;5049045;28;45971;-90
2022/02/06 09:47:27;;;;;;;;;2.00;2.00;;;;;11.03;66.78;101435.78;5054864;28;45508;-90
2022/02/06 09:49:52;;;;;;;;;2.25;2.25;;;;;11.06;67.67;101423.44;5022124;28;45265;-89
2022/02/06 09:52:28;;;;;;;;;3.25;2.00;;;;;11.10;67.22;101422.47;5048073;28;45478;-90
2022/02/06 09:55:08;;;;;;;;;2.25;2.00;;;;;11.10;66.66;101425.97;5040006;28;45463;-91
2022/02/06 10:00:26;;;;;;;;;2.50;2.00;;;;;11.12;67.05;101421.53;5028814;28;45608;-91
2022/02/06 10:02:55;;;;;;;;;1.75;1.00;;;;;11.13;67.58;101425.03;5021967;28;45356;-91
2022/02/06 10:05:21;;;;;;;;;3.00;2.00;;;;;11.10;67.67;101423.31;5015615;28;47052;-91
2022/02/06 10:08:31;;;;;;;;;3.75;2.75;;;;;11.11;67.85;101411.88;5039832;28;45286;-91
2022/02/06 10:11:16;;;;;;;;;2.50;2.00;;;;;11.13;67.95;101417.13;5019880;28;45752;-93
2022/02/06 10:13:44;;;;;;;;;3.25;2.75;;;;;11.11;67.73;101403.16;5032490;28;45411;-91
2022/02/06 10:16:15;;;;;;;;;4.75;3.00;;;;;11.17;67.91;101413.50;5011670;28;46669;-91
2022/02/06 10:18:43;;;;;;;;;3.25;2.50;;;;;11.19;67.65;101409.06;5028760;28;45442;-90
2022/02/06 10:21:12;;;;;;;;;5.75;5.00;;;;;11.20;67.69;101408.19;5042521;28;45563;-90
2022/02/06 10:23:45;;;;;;;;;4.00;3.00;;;;;11.27;67.58;101418.53;5020895;28;45355;-90
2022/02/06 10:26:20;;;;;;;;;1.50;1.50;;;;;11.28;68.07;101413.25;5019990;28;46257;-91
2022/02/06 10:28:57;;;;;;;;;2.00;2.00;;;;;11.34;67.88;101425.38;5031278;28;45624;-91
2022/02/06 10:31:24;;;;;;;;;3.00;2.75;;;;;11.37;67.70;101420.03;5035004;28;47448;-91
2022/02/06 10:33:52;;;;;;;;;2.50;1.75;;;;;11.38;68.18;101407.75;5032571;28;45526;-91
2022/02/06 10:36:30;;;;;;;;;4.25;2.75;;;;;11.41;68.12;101411.16;5030793;28;45734;-90
2022/02/06 10:39:01;;;;;;;;;3.00;3.00;;;;;11.41;67.69;101421.69;5029672;28;47244;-91
2022/02/06 10:41:27;;;;;;;;;4.75;3.00;;;;;11.42;67.51;101412.91;5030946;28;45462;-90
2022/02/06 10:44:05;;;;;;;;;3.00;3.00;;;;;11.48;67.80;101404.81;5032336;28;46077;-90
2022/02/06 10:46:33;;;;;;;;;4.75;4.75;;;;;11.52;67.90;101417.91;5008985;28;46198;-91
2022/02/06 10:49:01;;;;;;;;;3.00;1.00;;;;;11.56;67.84;101404.63;5032594;28;48277;-90
2022/02/06 10:51:47;;;;;;;;;3.00;3.00;;;;;11.62;67.62;101415.91;5034539;28;45441;-90
2022/02/06 10:54:20;;;;;;;;;8.50;5.25;;;;;11.59;67.90;101399.28;5038674;28;45481;-91
2022/02/06 10:57:03;;;;;;;;;3.25;3.00;;;;;11.63;67.97;101405.31;5033459;28;45813;-91
2022/02/06 10:59:37;;;;;;;;;2.00;2.00;;;;;11.66;67.99;101389.44;5010892;28;47290;-91
2022/02/06 11:02:27;;;;;;;;;3.50;3.25;;;;;11.70;68.21;101388.44;5028261;28;45762;-91
2022/02/06 11:05:22;;;;;;;;;3.25;3.25;;;;;11.74;67.62;101389.25;5022729;28;45415;-91
2022/02/06 11:07:51;;;;;;;;;6.00;5.25;;;;;11.79;67.55;101390.00;5019025;28;46999;-89
2022/02/06 11:10:17;;;;;;;;;5.00;3.00;;;;;11.82;67.73;101371.47;5032918;28;45452;-92
2022/02/06 11:12:49;;;;;;;;;3.00;3.00;;;;;11.83;67.90;101367.03;5037249;28;45299;-91
2022/02/06 11:15:38;;;;;;;;;6.25;6.25;;;;;11.81;67.71;101358.31;5039171;28;45544;-90
2022/02/06 11:18:20;;;;;;;;;5.00;3.00;;;;;11.82;67.72;101358.31;5034558;28;45483;-90
2022/02/06 11:21:06;;;;;;;;;3.75;3.75;;;;;11.85;67.58;101341.56;5029638;28;46929;-91
2022/02/06 11:23:37;;;;;;;;;5.50;4.50;;;;;11.89;67.61;101358.13;5017535;28;46133;-90
2022/02/06 11:26:05;;;;;;;;;4.25;3.00;;;;;11.90;67.24;101328.25;5019280;28;45485;-90
2022/02/06 11:28:31;;;;;;;;;6.50;4.25;;;;;11.94;67.76;101311.44;5037455;28;46185;-89
2022/02/06 11:30:56;;;;;;;;;6.25;4.00;;;;;11.97;67.56;101302.56;5018220;28;46206;-90
2022/02/06 11:33:22;;;;;;;;;4.75;3.50;;;;;11.99;67.47;101312.16;5020412;28;45294;-89
2022/02/06 11:35:56;;;;;;;;;4.00;3.75;;;;;12.00;67.45;101308.59;5017686;28;45455;-89
2022/02/06 11:44:23;;;;;;;;;4.00;4.00;;;;;12.10;67.25;101303.91;5036686;28;46859;-90
2022/02/06 11:46:59;;;;;;;;;4.00;2.00;;;;;12.11;67.09;101295.13;5046737;28;45299;-90
2022/02/06 11:49:25;;;;;;;;;2.00;2.00;;;;;12.10;67.11;101318.88;5041084;28;45410;-91
2022/02/06 11:51:53;;;;;;;;;5.50;3.25;;;;;12.10;66.99;101303.06;5037815;28;45859;-89
2022/02/06 11:54:45;;;;;;;;;5.75;4.00;;;;;12.13;66.83;101309.13;5025311;28;45514;-89
2022/02/06 11:57:20;;;;;;;;;4.25;3.50;;;;;12.15;66.73;101288.00;4998690;28;45324;-88
2022/02/06 12:00:06;;;;;;;;;6.25;5.00;;;;;12.20;66.89;101279.97;5033725;28;45815;-90
2022/02/06 12:02:39;;;;;;;;;5.00;3.00;;;;;12.18;66.71;101287.03;5030767;28;45567;-88
2022/02/06 12:05:16;;;;;;;;;2.50;2.50;;;;;12.20;67.10;101309.81;5036973;28;45678;-89
2022/02/06 12:08:00;;;;;;;;;3.00;2.50;;;;;12.21;66.93;101285.19;5040854;28;45358;-90
2022/02/06 12:10:34;;;;;;;;;4.00;2.00;;;;;12.23;67.03;101279.84;5042444;28;45272;-89
2022/02/06 12:13:24;;;;;;;;;2.00;2.00;;;;;12.23;67.28;101295.66;5038729;28;46714;-89
2022/02/06 12:16:00;;;;;;;;;3.00;3.00;;;;;12.18;67.33;101297.59;5015516;28;45364;-89
2022/02/06 12:18:28;;;;;;;;;4.25;3.25;;;;;12.17;68.09;101285.34;5039912;28;45406;-88
2022/02/06 12:20:56;;;;;;;;;1.75;0.25;;;;;12.15;67.61;101275.69;5040020;28;45729;-89
2022/02/06 12:23:54;;;;;;;;;2.00;1.75;;;;;12.16;67.59;101260.75;5040558;28;45598;-88
2022/02/06 12:26:30;;;;;;;;;2.75;2.00;;;;;12.21;67.67;101247.41;5039437;28;45746;-88
2022/02/06 12:29:08;;;;;;;;;2.75;2.75;;;;;12.26;67.77;101258.69;5040652;28;45493;-88
2022/02/06 12:31:59;;;;;;;;;3.50;3.50;;;;;12.26;67.16;101241.09;5038286;28;45524;-88
2022/02/06 12:37:40;;;;;;;;;1.00;1.00;;;;;12.29;67.73;101240.16;5040087;28;45454;-86
2022/02/06 12:40:15;;;;;;;;;2.25;1.50;;;;;12.34;67.34;101230.31;5020238;28;45494;-90
2022/02/06 12:42:46;;;;;;;;;3.00;1.75;;;;;12.39;67.52;101243.34;5019246;28;46070;-91
2022/02/06 12:45:13;;;;;;;;;4.00;3.00;;;;;12.46;67.64;101236.09;5039595;28;46405;-88
2022/02/06 12:47:45;;;;;;;;;2.50;0.50;;;;;12.51;66.80;101231.53;5026362;28;45451;-87
2022/02/06 12:50:17;;;;;;;;;1.00;1.00;;;;;12.53;66.69;101224.44;5029465;28;45178;-88
2022/02/06 12:52:43;;;;;;;;;1.00;1.00;;;;;12.53;66.92;101216.50;5038682;28;45297;-89
2022/02/06 12:55:11;;;;;;;;;1.50;1.00;;;;;12.52;66.98;101220.06;5039033;28;45617;-89
2022/02/06 12:57:43;;;;;;;;;2.50;0.50;;;;;12.58;66.64;101206.69;5040223;28;45823;-89
2022/02/06 13:00:09;;;;;;;;;1.50;0.50;;;;;12.62;66.54;101219.78;5036534;28;45567;-89
2022/02/06 13:02:35;;;;;;;;;0.25;0.25;;;;;12.62;66.53;101225.88;5028844;28;45461;-88
2022/02/06 13:05:08;;;;;;;;;0.75;0.00;;;;;12.62;66.17;101212.69;5038880;28;45513;-87
2022/02/06 13:07:44;;;;;;;;;0.25;0.25;;;;;12.67;66.12;101212.53;5021605;28;45254;-88
2022/02/06 13:10:11;;;;;;;;;2.00;1.75;;;;;12.68;66.59;101193.16;5021133;28;45393;-88
2022/02/06 13:12:48;;;;;;;;;1.75;1.25;;;;;12.66;66.40;101208.19;5042512;28;45592;-88
2022/02/06 13:20:55;;;;;;;;;0.50;0.50;;;;;12.70;66.45;101212.44;5038408;28;45419;-88
2022/02/06 13:23:42;;;;;;;;;5.50;2.25;;;;;12.73;67.17;101222.88;5039611;28;45472;-88
2022/02/06 13:26:21;;;;;;;;;0.75;0.50;;;;;12.70;66.91;101215.06;5038466;28;45638;-88
2022/02/06 13:34:12;;;;;;;;;2.75;0.75;;;;;12.69;67.60;101219.47;5036369;28;45725;-88
2022/02/06 13:36:48;;;;;;;;;0.50;0.50;;;;;12.68;67.92;101220.41;5036772;28;46417;-87
2022/02/06 13:39:25;;;;;;;;;1.00;0.50;;;;;12.66;67.87;101205.56;5018568;28;46190;-87
2022/02/06 13:41:51;;;;;;;;;5.25;0.75;;;;;12.65;67.99;101201.19;5032174;28;45601;-88
2022/02/06 13:44:21;;;;;;;;;0.75;0.75;;;;;12.58;68.06;101204.03;5041109;28;45343;-87
2022/02/06 13:46:47;;;;;;;;;0.00;0.00;;;;;12.59;67.94;101202.28;5038637;28;45420;-87
2022/02/06 13:49:13;;;;;;;;;1.25;1.00;;;;;12.59;67.58;101195.19;5040138;28;45685;-88
2022/02/06 13:51:48;;;;;;;;;1.50;1.50;;;;;12.63;68.57;101195.09;5039132;28;45360;-88
2022/02/06 13:54:15;;;;;;;;;1.00;0.50;;;;;12.63;68.33;101189.81;5021748;28;46656;-87
2022/02/06 13:56:41;;;;;;;;;2.00;0.25;;;;;12.60;68.55;101177.59;5039918;28;45348;-87
2022/02/06 13:59:18;;;;;;;;;0.00;0.00;;;;;12.54;68.46;101157.59;5039325;28;45362;-88
2022/02/06 14:01:51;;;;;;;;;0.50;0.50;;;;;12.58;68.59;101159.22;5038159;28;45431;-86
2022/02/06 14:04:30;;;;;;;;;0.50;0.50;;;;;12.60;68.78;101170.56;5037036;28;45323;-87
2022/02/06 14:07:21;;;;;;;;;2.00;1.75;;;;;12.61;69.00;101145.06;5020335;28;46965;-88
2022/02/06 14:10:22;;;;;;;;;0.50;0.50;;;;;12.62;69.35;101146.75;5020763;28;45439;-87
2022/02/06 14:12:51;;;;;;;;;1.50;1.00;;;;;12.58;68.75;101163.63;5038352;28;45397;-87
2022/02/06 14:15:24;;;;;;;;;0.75;0.75;;;;;12.56;68.78;101147.88;5007901;28;46229;-86
2022/02/06 14:17:53;;;;;;;;;4.00;0.75;;;;;12.62;69.01;101130.09;5037687;28;48235;-87
2022/02/06 14:20:24;;;;;;;;;1.25;1.25;;;;;12.63;68.70;101132.69;5038333;28;45342;-87
2022/02/06 14:22:54;;;;;;;;;2.25;0.50;;;;;12.68;68.44;101120.19;5020837;28;45337;-87
2022/02/06 14:25:35;;;;;;;;;1.00;1.00;;;;;12.77;68.70;101103.16;5029958;28;46351;-86
2022/02/06 14:28:21;;;;;;;;;0.00;0.00;;;;;12.80;68.52;101113.59;5037286;28;46545;-88
2022/02/06 14:30:47;;;;;;;;;1.25;0.50;;;;;12.80;68.51;101110.97;5028137;28;45702;-88
2022/02/06 14:33:21;;;;;;;;;2.00;1.00;;;;;12.79;68.17;101113.69;5027608;28;45503;-87
2022/02/06 14:35:55;;;;;;;;;0.50;0.50;;;;;12.85;68.06;101109.94;5017330;28;46010;-88